createdAt,value
2022-08-05T00:03:07.686Z,29.25
2022-08-05T00:17:59.999Z,29.04
2022-08-05T00:32:51.605Z,29.04
2022-08-05T00:47:57.438Z,29.28
2022-08-05T01:02:37.277Z,29.19
2022-08-05T01:17:40.140Z,29.08
2022-08-05T01:32:34.847Z,28.94
2022-08-05T01:47:25.971Z,28.70
2022-08-05T02:02:17.834Z,28.64
2022-08-05T02:17:29.773Z,28.53
2022-08-05T02:32:06.411Z,28.45
2022-08-05T02:47:00.858Z,28.35
2022-08-05T03:01:51.326Z,28.34
2022-08-05T03:16:43.293Z,28.27
2022-08-05T03:31:57.136Z,28.11
2022-08-05T03:46:29.704Z,28.08
2022-08-05T04:01:20.915Z,27.81
2022-08-05T04:16:11.155Z,27.77
2022-08-05T04:31:02.300Z,27.60
2022-08-05T04:45:54.779Z,27.30
2022-08-05T05:00:45.710Z,27.19
2022-08-05T05:16:01.777Z,27.25
2022-08-05T05:30:33.564Z,27.30
2022-08-05T05:45:22.783Z,27.23
2022-08-05T06:00:15.283Z,27.16
2022-08-05T06:15:08.144Z,27.04
2022-08-05T06:30:04.493Z,27.20
2022-08-05T06:44:51.849Z,27.40
2022-08-05T06:59:55.085Z,27.78
2022-08-05T07:14:55.809Z,27.74
2022-08-05T07:30:22.331Z,27.93
2022-08-05T07:44:46.727Z,28.33
2022-08-05T07:59:41.242Z,28.55
2022-08-05T08:14:31.583Z,28.65
2022-08-05T08:30:03.921Z,28.95
2022-08-05T08:45:18.027Z,29.15
2022-08-05T08:59:19.782Z,29.50
2022-08-05T09:14:54.727Z,29.64
2022-08-05T09:29:00.838Z,29.65
2022-08-05T09:43:52.857Z,29.88
2022-08-05T09:58:45.359Z,30.07
2022-08-05T10:13:47.860Z,30.08
2022-08-05T10:28:31.423Z,30.17
2022-08-05T10:43:24.245Z,30.29
2022-08-05T10:58:17.944Z,30.30
2022-08-05T11:13:09.917Z,30.49
2022-08-05T11:28:12.208Z,30.74
2022-08-05T11:43:09.117Z,31.13
2022-08-05T11:58:09.531Z,31.21
2022-08-05T12:12:59.921Z,31.86
2022-08-05T12:27:53.025Z,32.01
2022-08-05T12:42:43.068Z,32.07
2022-08-05T12:58:38.451Z,31.95
2022-08-05T13:12:28.346Z,31.64
2022-08-05T13:27:38.341Z,31.63
2022-08-05T13:42:27.089Z,31.36
2022-08-05T13:57:19.580Z,31.23
2022-08-05T14:12:17.512Z,30.86
2022-08-05T14:27:17.480Z,30.79
2022-08-05T14:42:19.289Z,30.88
2022-08-05T14:56:49.213Z,30.80
2022-08-05T15:11:53.178Z,30.42
2022-08-05T15:26:34.835Z,30.32
2022-08-05T16:11:43.698Z,29.69
2022-08-05T16:26:35.381Z,29.26
2022-08-05T16:56:32.883Z,27.89
2022-08-05T17:11:25.704Z,27.39
2022-08-05T17:26:15.824Z,27.27
2022-08-05T17:41:11.474Z,26.96
2022-08-05T17:55:59.157Z,26.62
2022-08-05T18:10:50.164Z,26.19
2022-08-05T18:25:44.072Z,25.97
2022-08-05T18:41:53.374Z,25.71
2022-08-05T18:55:23.424Z,25.40
2022-08-05T19:10:16.304Z,25.22
2022-08-05T19:25:07.449Z,25.00
2022-08-05T19:55:06.837Z,24.79
2022-08-05T20:10:00.340Z,24.81
2022-08-05T20:24:52.450Z,24.95
2022-08-05T20:39:44.512Z,25.01
2022-08-05T20:54:55.546Z,25.00
2022-08-05T21:09:29.190Z,24.91
2022-08-05T21:24:21.045Z,24.83
2022-08-05T21:54:17.691Z,24.77
2022-08-05T22:09:14.754Z,24.61
2022-08-05T22:24:40.648Z,24.56
2022-08-05T22:39:15.776Z,24.41
2022-08-05T22:54:06.722Z,24.28
2022-08-05T23:09:27.212Z,24.23
2022-08-05T23:23:50.517Z,24.01
2022-08-05T23:38:43.434Z,23.92
2022-08-05T23:53:46.383Z,23.79
